createdAt,value
2018-09-12T00:00:40.418Z,14.85
2018-09-12T00:03:08.902Z,14.86
2018-09-12T00:05:37.722Z,14.85
2018-09-12T00:08:06.194Z,14.86
2018-09-12T00:10:34.883Z,14.83
2018-09-12T00:13:03.394Z,14.84
2018-09-12T00:15:32.259Z,14.83
2018-09-12T00:18:00.822Z,14.83
2018-09-12T00:20:29.414Z,14.83
2018-09-12T00:22:58.178Z,14.80
2018-09-12T00:25:26.834Z,14.79
2018-09-12T00:27:55.785Z,14.71
2018-09-12T00:30:24.254Z,14.81
2018-09-12T00:32:52.947Z,14.77
2018-09-12T00:35:21.553Z,14.76
2018-09-12T00:37:50.354Z,14.71
2018-09-12T00:40:18.854Z,14.72
2018-09-12T00:42:47.611Z,14.73
2018-09-12T00:45:16.209Z,14.72
2018-09-12T00:47:44.782Z,14.72
2018-09-12T00:50:13.476Z,14.69
2018-09-12T00:52:42.071Z,14.70
2018-09-12T00:55:10.809Z,14.71
2018-09-12T00:57:39.345Z,14.72
2018-09-12T01:00:07.887Z,14.72
2018-09-12T01:02:36.490Z,14.72
2018-09-12T01:05:05.046Z,14.72
2018-09-12T01:07:33.770Z,14.72
2018-09-12T01:10:02.309Z,14.72
2018-09-12T01:12:31.102Z,14.72
2018-09-12T01:14:59.630Z,14.72
2018-09-12T01:17:28.345Z,14.73
2018-09-12T01:19:56.882Z,14.72
2018-09-12T01:22:25.510Z,14.72
2018-09-12T01:24:54.069Z,14.73
2018-09-12T01:27:22.725Z,14.70
2018-09-12T01:29:51.509Z,14.67
2018-09-12T01:32:20.093Z,14.60
2018-09-12T01:34:48.730Z,14.64
2018-09-12T01:37:17.319Z,14.64
2018-09-12T01:39:45.905Z,14.62
2018-09-12T01:42:14.398Z,14.63
2018-09-12T01:44:43.038Z,14.60
2018-09-12T01:47:11.742Z,14.58
2018-09-12T01:49:40.277Z,14.59
2018-09-12T01:52:09.199Z,14.60
2018-09-12T01:54:37.862Z,14.62
2018-09-12T01:57:06.489Z,14.61
2018-09-12T01:59:35.067Z,14.63
2018-09-12T02:02:03.642Z,14.63
2018-09-12T02:04:32.284Z,14.06
2018-09-12T02:07:00.810Z,14.65
2018-09-12T02:09:29.717Z,14.66
2018-09-12T02:11:58.340Z,14.67
2018-09-12T02:14:26.939Z,14.66
2018-09-12T02:16:55.514Z,14.66
2018-09-12T02:19:24.119Z,14.65
2018-09-12T02:21:52.918Z,14.64
2018-09-12T02:24:21.664Z,14.64
2018-09-12T02:26:50.662Z,14.61
2018-09-12T02:29:19.133Z,14.60
2018-09-12T02:31:47.746Z,14.58
2018-09-12T02:34:16.425Z,14.60
2018-09-12T02:36:45.022Z,14.59
2018-09-12T02:39:13.591Z,14.58
2018-09-12T02:41:42.172Z,14.57
2018-09-12T02:44:11.270Z,14.57
2018-09-12T02:46:39.863Z,14.55
2018-09-12T02:49:08.403Z,14.41
2018-09-12T02:51:36.891Z,14.53
2018-09-12T02:54:05.679Z,14.52
2018-09-12T02:56:34.298Z,14.53
2018-09-12T02:59:02.930Z,14.55
2018-09-12T03:01:31.406Z,14.55
2018-09-12T03:04:16.486Z,14.56
2018-09-12T03:06:44.850Z,14.58
2018-09-12T03:09:13.744Z,14.58
2018-09-12T03:11:42.264Z,14.60
2018-09-12T03:14:10.894Z,14.60
2018-09-12T03:16:39.374Z,14.61
2018-09-12T03:19:08.009Z,14.62
2018-09-12T03:21:36.679Z,14.64
2018-09-12T03:24:05.266Z,14.61
2018-09-12T03:26:34.178Z,14.62
2018-09-12T03:29:02.683Z,14.54
2018-09-12T03:31:31.342Z,14.60
2018-09-12T03:33:59.923Z,14.60
2018-09-12T03:36:28.542Z,14.58
2018-09-12T03:38:57.113Z,14.59
2018-09-12T03:41:25.762Z,14.59
2018-09-12T03:43:54.757Z,14.61
2018-09-12T03:46:23.334Z,14.62
2018-09-12T03:48:52.011Z,14.67
2018-09-12T03:51:20.497Z,14.70
2018-09-12T03:53:49.199Z,14.71
2018-09-12T03:56:17.738Z,14.67
2018-09-12T03:58:46.351Z,14.73
2018-09-12T04:01:14.863Z,14.49
2018-09-12T04:03:43.455Z,14.77
2018-09-12T04:06:12.303Z,14.78
2018-09-12T04:08:40.791Z,14.80
2018-09-12T04:11:09.701Z,14.81
2018-09-12T04:13:38.234Z,14.83
2018-09-12T04:16:06.938Z,14.84
2018-09-12T04:18:35.524Z,14.86
2018-09-12T04:21:04.041Z,14.77
2018-09-12T04:23:33.218Z,14.67
2018-09-12T04:26:01.787Z,14.52
2018-09-12T04:28:30.586Z,14.43
2018-09-12T04:30:59.214Z,14.37
2018-09-12T04:33:28.158Z,13.69
2018-09-12T04:35:56.661Z,14.29
2018-09-12T04:38:25.242Z,14.27
2018-09-12T04:40:53.724Z,14.31
2018-09-12T04:43:22.482Z,14.39
2018-09-12T04:45:50.951Z,14.45
2018-09-12T04:48:19.586Z,14.51
2018-09-12T04:50:48.474Z,14.11
2018-09-12T04:53:16.939Z,14.58
2018-09-12T04:55:45.762Z,14.37
2018-09-12T04:58:14.224Z,14.65
2018-09-12T05:00:42.861Z,14.69
2018-09-12T05:03:11.342Z,14.73
2018-09-12T05:05:39.874Z,14.75
2018-09-12T05:08:08.434Z,14.50
2018-09-12T05:10:37.018Z,14.80
2018-09-12T05:13:05.884Z,14.55
2018-09-12T05:15:34.378Z,14.85
2018-09-12T05:18:03.218Z,14.90
2018-09-12T05:20:31.850Z,14.90
2018-09-12T05:23:00.614Z,14.93
2018-09-12T05:25:29.250Z,14.96
2018-09-12T05:27:57.718Z,14.98
2018-09-12T05:30:26.300Z,14.97
2018-09-12T05:32:54.770Z,15.02
2018-09-12T05:35:23.800Z,15.04
2018-09-12T05:37:52.343Z,15.06
2018-09-12T05:40:21.837Z,15.08
2018-09-12T05:42:50.450Z,15.10
2018-09-12T05:45:19.143Z,15.13
2018-09-12T05:47:47.716Z,15.13
2018-09-12T05:50:16.383Z,15.14
2018-09-12T05:52:45.279Z,15.06
2018-09-12T05:55:13.858Z,15.22
2018-09-12T05:57:42.762Z,15.22
2018-09-12T06:00:11.518Z,15.21
2018-09-12T06:02:40.246Z,15.15
2018-09-12T06:05:08.722Z,15.14
2018-09-12T06:07:39.887Z,15.12
2018-09-12T06:10:08.542Z,15.05
2018-09-12T06:12:37.224Z,15.01
2018-09-12T06:15:06.083Z,15.01
2018-09-12T06:17:35.632Z,14.96
2018-09-12T06:20:04.431Z,14.90
2018-09-12T06:22:33.598Z,14.88
2018-09-12T06:25:02.779Z,14.85
2018-09-12T06:27:31.708Z,14.83
2018-09-12T06:30:00.257Z,14.87
2018-09-12T06:32:28.882Z,14.85
2018-09-12T06:34:57.618Z,14.76
2018-09-12T06:37:30.665Z,14.71
2018-09-12T06:39:59.303Z,14.65
2018-09-12T06:42:27.814Z,14.65
2018-09-12T06:45:01.783Z,14.62
2018-09-12T06:47:31.355Z,14.59
2018-09-12T06:49:59.866Z,14.49
2018-09-12T06:52:28.730Z,14.41
2018-09-12T06:54:57.340Z,14.31
2018-09-12T06:57:25.857Z,14.31
2018-09-12T06:59:55.102Z,14.28
2018-09-12T07:02:23.597Z,14.30
2018-09-12T07:04:52.306Z,14.29
2018-09-12T07:07:20.786Z,14.31
2018-09-12T07:09:49.462Z,14.31
2018-09-12T07:12:18.786Z,14.32
2018-09-12T07:14:48.371Z,14.30
2018-09-12T07:17:21.154Z,14.30
2018-09-12T07:19:53.250Z,14.34
2018-09-12T07:22:26.124Z,14.37
2018-09-12T07:24:59.795Z,14.38
2018-09-12T07:27:32.247Z,14.41
2018-09-12T07:30:09.077Z,14.46
2018-09-12T07:32:39.879Z,14.51
2018-09-12T07:35:10.014Z,14.67
2018-09-12T07:37:41.907Z,14.71
2018-09-12T07:40:11.843Z,14.49
2018-09-12T07:42:45.398Z,14.79
2018-09-12T07:45:20.863Z,14.81
2018-09-12T07:47:58.769Z,14.86
2018-09-12T07:50:28.130Z,14.94
2018-09-12T07:53:01.244Z,14.92
2018-09-12T07:55:31.179Z,14.93
2018-09-12T07:58:04.377Z,14.93
2018-09-12T08:00:35.413Z,14.94
2018-09-12T08:03:07.650Z,14.91
2018-09-12T08:05:37.259Z,14.89
2018-09-12T08:08:11.458Z,14.93
2018-09-12T08:10:43.283Z,14.95
2018-09-12T08:13:14.595Z,15.03
2018-09-12T08:15:46.990Z,15.13
2018-09-12T08:18:16.847Z,15.25
2018-09-12T08:20:46.790Z,15.30
2018-09-12T08:23:15.617Z,15.43
2018-09-12T08:25:44.114Z,15.52
2018-09-12T08:28:12.823Z,15.61
2018-09-12T08:30:42.651Z,15.65
2018-09-12T08:33:11.394Z,15.62
2018-09-12T08:35:40.151Z,15.62
2018-09-12T08:38:08.715Z,15.54
2018-09-12T08:40:37.355Z,15.23
2018-09-12T08:43:05.990Z,15.41
2018-09-12T08:45:36.811Z,15.05
2018-09-12T08:48:05.698Z,15.24
2018-09-12T08:50:34.595Z,15.28
2018-09-12T08:53:07.263Z,15.30
2018-09-12T08:55:35.902Z,15.35
2018-09-12T08:58:04.476Z,15.31
2018-09-12T09:00:36.514Z,15.32
2018-09-12T09:03:06.711Z,15.35
2018-09-12T09:05:35.369Z,15.34
2018-09-12T09:08:03.950Z,15.29
2018-09-12T09:10:32.543Z,15.23
2018-09-12T09:13:01.171Z,15.16
2018-09-12T09:15:32.874Z,15.10
2018-09-12T09:18:01.531Z,15.14
2018-09-12T09:20:30.140Z,15.19
2018-09-12T09:23:02.697Z,15.30
2018-09-12T09:25:31.670Z,15.40
2018-09-12T09:28:00.259Z,15.53
2018-09-12T09:30:32.138Z,15.59
2018-09-12T09:33:00.975Z,15.63
2018-09-12T09:35:30.157Z,15.64
2018-09-12T09:38:02.146Z,15.67
2018-09-12T09:40:30.670Z,15.73
2018-09-12T09:42:59.525Z,15.85
2018-09-12T09:45:28.113Z,15.97
2018-09-12T09:47:56.795Z,16.11
2018-09-12T09:50:25.491Z,16.27
2018-09-12T09:52:54.038Z,16.40
2018-09-12T09:55:22.602Z,16.60
2018-09-12T09:57:51.090Z,16.64
2018-09-12T10:00:24.984Z,16.63
2018-09-12T10:02:58.787Z,16.69
2018-09-12T10:05:32.590Z,16.63
2018-09-12T10:09:05.991Z,16.61
2018-09-12T10:11:34.682Z,16.75
2018-09-12T10:14:03.242Z,16.88
2018-09-12T10:16:31.861Z,16.95
2018-09-12T10:19:00.581Z,16.92
2018-09-12T10:21:29.058Z,17.00
2018-09-12T10:23:57.898Z,17.08
2018-09-12T10:26:26.482Z,17.09
2018-09-12T10:28:55.330Z,16.79
2018-09-12T10:31:23.955Z,17.20
2018-09-12T10:33:52.750Z,17.04
2018-09-12T10:36:21.427Z,17.01
2018-09-12T10:38:50.860Z,17.01
2018-09-12T10:41:20.133Z,16.81
2018-09-12T10:43:48.780Z,16.88
2018-09-12T10:46:17.427Z,16.67
2018-09-12T10:48:46.095Z,17.07
2018-09-12T10:51:15.926Z,17.29
2018-09-12T10:53:45.501Z,17.48
2018-09-12T10:56:14.203Z,17.62
2018-09-12T10:58:42.674Z,17.76
2018-09-12T11:01:11.498Z,17.76
2018-09-12T11:03:40.078Z,17.70
2018-09-12T11:06:08.928Z,17.40
2018-09-12T11:08:37.626Z,17.20
2018-09-12T11:11:06.301Z,17.09
2018-09-12T11:13:35.291Z,17.09
2018-09-12T11:16:03.794Z,17.14
2018-09-12T11:18:32.560Z,16.68
2018-09-12T11:21:01.074Z,17.01
2018-09-12T11:23:29.719Z,17.14
2018-09-12T11:25:58.198Z,17.23
2018-09-12T11:28:27.359Z,17.27
2018-09-12T11:30:55.877Z,17.30
2018-09-12T11:33:24.406Z,17.45
2018-09-12T11:35:53.794Z,17.02
2018-09-12T11:38:23.310Z,17.52
2018-09-12T11:40:52.174Z,16.86
2018-09-12T11:43:20.650Z,17.39
2018-09-12T11:45:49.122Z,17.55
2018-09-12T11:48:17.854Z,17.62
2018-09-12T11:50:48.648Z,17.57
2018-09-12T11:53:17.249Z,17.57
2018-09-12T11:55:45.866Z,17.57
2018-09-12T11:58:14.442Z,17.66
2018-09-12T12:00:43.090Z,17.63
2018-09-12T12:03:12.074Z,17.53
2018-09-12T12:05:40.654Z,17.59
2018-09-12T12:08:09.541Z,17.71
2018-09-12T12:10:40.273Z,17.69
2018-09-12T12:13:08.950Z,17.86
2018-09-12T12:15:38.160Z,17.89
2018-09-12T12:18:06.742Z,17.93
2018-09-12T12:20:35.246Z,17.97
2018-09-12T12:23:03.893Z,17.78
2018-09-12T12:25:32.321Z,17.60
2018-09-12T12:28:00.876Z,17.29
2018-09-12T12:30:30.102Z,16.98
2018-09-12T12:32:58.751Z,16.84
2018-09-12T12:35:27.685Z,16.78
2018-09-12T12:37:57.657Z,16.66
2018-09-12T12:40:26.507Z,16.64
2018-09-12T12:42:55.482Z,16.57
2018-09-12T12:45:26.440Z,16.45
2018-09-12T12:47:54.958Z,16.58
2018-09-12T12:50:24.218Z,16.61
2018-09-12T12:52:53.147Z,16.82
2018-09-12T12:55:21.863Z,16.86
2018-09-12T12:57:50.429Z,16.80
2018-09-12T13:00:18.967Z,16.91
2018-09-12T13:02:47.683Z,16.77
2018-09-12T13:05:16.267Z,16.92
2018-09-12T13:07:45.470Z,16.98
2018-09-12T13:10:13.959Z,17.03
2018-09-12T13:12:42.736Z,17.07
2018-09-12T13:15:11.233Z,17.09
2018-09-12T13:17:41.421Z,17.06
2018-09-12T13:20:09.946Z,17.21
2018-09-12T13:22:38.647Z,17.19
2018-09-12T13:25:07.260Z,17.14
2018-09-12T13:27:35.794Z,16.97
2018-09-12T13:30:04.742Z,16.83
2018-09-12T13:32:33.303Z,16.81
2018-09-12T13:35:02.312Z,16.68
2018-09-12T13:37:30.841Z,16.53
2018-09-12T13:39:59.482Z,16.60
2018-09-12T13:42:28.182Z,16.63
2018-09-12T13:44:56.710Z,16.62
2018-09-12T13:47:25.358Z,16.45
2018-09-12T13:49:53.946Z,16.48
2018-09-12T13:52:22.919Z,16.46
2018-09-12T13:54:51.404Z,16.46
2018-09-12T13:57:20.197Z,16.61
2018-09-12T13:59:48.970Z,16.70
2018-09-12T14:02:17.611Z,16.78
2018-09-12T14:04:46.251Z,16.58
2018-09-12T14:07:14.832Z,16.63
2018-09-12T14:09:43.519Z,16.55
2018-09-12T14:12:12.805Z,16.48
2018-09-12T14:14:42.018Z,16.42
2018-09-12T14:17:10.506Z,16.50
2018-09-12T14:19:39.146Z,16.42
2018-09-12T14:22:07.723Z,16.38
2018-09-12T14:24:36.372Z,16.45
2018-09-12T14:27:05.003Z,16.20
2018-09-12T14:29:33.614Z,16.51
2018-09-12T14:32:02.644Z,16.64
2018-09-12T14:34:31.209Z,16.75
2018-09-12T14:37:00.054Z,16.83
2018-09-12T14:39:28.567Z,17.06
2018-09-12T14:41:57.183Z,17.03
2018-09-12T14:44:28.491Z,16.87
2018-09-12T14:46:57.237Z,16.64
2018-09-12T14:49:25.709Z,16.49
2018-09-12T14:51:54.336Z,15.92
2018-09-12T14:54:22.890Z,15.70
2018-09-12T14:56:51.370Z,15.50
2018-09-12T14:59:20.210Z,15.41
2018-09-12T15:01:48.921Z,15.35
2018-09-12T15:04:18.079Z,15.38
2018-09-12T15:06:46.603Z,15.59
2018-09-12T15:09:15.278Z,15.63
2018-09-12T15:11:43.934Z,15.67
2018-09-12T15:14:13.503Z,15.70
2018-09-12T15:16:42.960Z,15.70
2018-09-12T15:19:11.466Z,15.62
2018-09-12T15:21:40.018Z,15.74
2018-09-12T15:24:09.809Z,15.93
2018-09-12T15:26:38.641Z,15.89
2018-09-12T15:29:07.217Z,15.86
2018-09-12T15:31:36.787Z,15.83
2018-09-12T15:34:06.094Z,15.83
2018-09-12T15:36:34.799Z,15.78
2018-09-12T15:39:03.430Z,15.71
2018-09-12T15:41:32.206Z,15.72
2018-09-12T15:44:00.650Z,15.78
2018-09-12T15:46:29.258Z,15.87
2018-09-12T15:48:58.084Z,15.96
2018-09-12T15:51:26.575Z,15.98
2018-09-12T15:53:55.306Z,16.00
2018-09-12T15:56:23.988Z,15.96
2018-09-12T15:58:52.559Z,15.96
2018-09-12T16:01:21.024Z,15.99
2018-09-12T16:03:49.700Z,15.89
2018-09-12T16:06:18.178Z,15.79
2018-09-12T16:08:46.693Z,15.62
2018-09-12T16:11:15.482Z,15.27
2018-09-12T16:13:44.125Z,15.52
2018-09-12T16:16:12.931Z,15.50
2018-09-12T16:18:41.510Z,15.54
2018-09-12T16:21:10.118Z,15.57
2018-09-12T16:23:38.614Z,15.55
2018-09-12T16:26:07.186Z,15.57
2018-09-12T16:28:35.834Z,15.59
2018-09-12T16:31:04.334Z,15.60
2018-09-12T16:33:32.949Z,15.26
2018-09-12T16:36:01.682Z,15.61
2018-09-12T16:38:30.218Z,15.56
2018-09-12T16:40:58.755Z,15.59
2018-09-12T16:43:27.241Z,15.65
2018-09-12T16:45:56.026Z,15.61
2018-09-12T16:48:24.506Z,15.44
2018-09-12T16:50:53.338Z,15.42
2018-09-12T16:53:21.968Z,15.37
2018-09-12T16:55:51.228Z,15.31
2018-09-12T16:58:19.754Z,15.28
2018-09-12T17:00:48.290Z,15.26
2018-09-12T17:03:17.027Z,15.25
2018-09-12T17:05:45.559Z,15.23
2018-09-12T17:08:14.307Z,14.92
2018-09-12T17:10:43.050Z,15.22
2018-09-12T17:13:11.988Z,15.21
2018-09-12T17:15:40.560Z,15.23
2018-09-12T17:18:09.154Z,15.22
2018-09-12T17:20:37.650Z,15.19
2018-09-12T17:23:06.318Z,15.13
2018-09-12T17:25:35.046Z,15.03
2018-09-12T17:28:03.535Z,15.06
2018-09-12T17:30:32.210Z,15.01
2018-09-12T17:33:00.934Z,14.93
2018-09-12T17:35:29.661Z,14.97
2018-09-12T17:37:58.271Z,14.96
2018-09-12T17:40:26.819Z,14.94
2018-09-12T17:42:56.479Z,14.90
2018-09-12T17:45:25.030Z,14.90
2018-09-12T17:47:54.041Z,14.89
2018-09-12T17:50:23.172Z,14.88
2018-09-12T17:52:52.258Z,14.88
2018-09-12T17:55:20.874Z,14.85
2018-09-12T17:57:49.852Z,14.83
2018-09-12T18:00:18.411Z,14.80
2018-09-12T18:02:47.126Z,14.80
2018-09-12T18:05:15.713Z,14.82
2018-09-12T18:07:44.286Z,14.80
2018-09-12T18:10:13.014Z,14.77
2018-09-12T18:12:41.487Z,14.76
2018-09-12T18:15:10.427Z,14.76
2018-09-12T18:17:39.060Z,14.76
2018-09-12T18:20:07.756Z,14.75
2018-09-12T18:22:36.422Z,14.68
2018-09-12T18:25:05.070Z,14.56
2018-09-12T18:27:33.665Z,14.34
2018-09-12T18:30:02.227Z,14.18
2018-09-12T18:32:31.590Z,14.01
2018-09-12T18:35:00.184Z,13.92
2018-09-12T18:37:29.310Z,13.92
2018-09-12T18:39:57.996Z,13.91
2018-09-12T18:42:26.931Z,13.91
2018-09-12T18:44:56.130Z,13.92
2018-09-12T18:47:25.026Z,13.93
2018-09-12T18:49:54.150Z,13.95
2018-09-12T18:52:23.111Z,13.98
2018-09-12T18:54:51.655Z,13.96
2018-09-12T18:57:20.534Z,13.92
2018-09-12T18:59:49.078Z,13.86
2018-09-12T19:02:17.719Z,13.82
2018-09-12T19:04:46.283Z,13.79
2018-09-12T19:07:14.968Z,13.75
2018-09-12T19:09:43.632Z,13.75
2018-09-12T19:12:12.850Z,13.75
2018-09-12T19:14:41.638Z,13.76
2018-09-12T19:17:10.195Z,13.82
2018-09-12T19:19:39.138Z,13.87
2018-09-12T19:22:08.352Z,13.91
2018-09-12T19:24:37.242Z,13.28
2018-09-12T19:27:05.838Z,13.94
2018-09-12T19:29:34.624Z,13.96
2018-09-12T19:32:03.265Z,13.76
2018-09-12T19:34:31.832Z,14.09
2018-09-12T19:37:00.430Z,14.12
2018-09-12T19:39:28.914Z,14.16
2018-09-12T19:41:57.554Z,14.17
2018-09-12T19:44:25.987Z,14.15
2018-09-12T19:46:54.776Z,13.76
2018-09-12T19:49:24.069Z,14.18
2018-09-12T19:51:52.667Z,14.16
2018-09-12T19:54:21.255Z,14.20
2018-09-12T19:56:49.848Z,14.21
2018-09-12T19:59:18.805Z,14.25
2018-09-12T20:01:47.327Z,14.30
2018-09-12T20:04:16.035Z,13.99
2018-09-12T20:06:44.648Z,14.32
2018-09-12T20:09:13.254Z,14.34
2018-09-12T20:11:42.111Z,14.34
2018-09-12T20:14:11.467Z,14.33
2018-09-12T20:16:40.111Z,14.33
2018-09-12T20:19:08.789Z,14.32
2018-09-12T20:21:37.546Z,14.32
2018-09-12T20:24:06.202Z,14.34
2018-09-12T20:26:34.952Z,14.08
2018-09-12T20:29:03.650Z,14.35
2018-09-12T20:31:32.168Z,14.35
2018-09-12T20:34:00.689Z,14.35
2018-09-12T20:36:29.376Z,14.34
2018-09-12T20:38:57.968Z,14.33
2018-09-12T20:41:26.486Z,14.34
2018-09-12T20:43:55.466Z,13.77
2018-09-12T20:46:24.035Z,14.32
2018-09-12T20:48:52.807Z,14.32
2018-09-12T20:51:21.387Z,14.36
2018-09-12T20:53:49.903Z,14.37
2018-09-12T20:56:18.539Z,14.37
2018-09-12T20:58:47.028Z,14.36
2018-09-12T21:01:15.647Z,14.36
2018-09-12T21:03:44.302Z,14.36
2018-09-12T21:06:12.987Z,14.34
2018-09-12T21:08:41.506Z,14.33
2018-09-12T21:11:10.314Z,14.34
2018-09-12T21:13:38.941Z,14.31
2018-09-12T21:16:07.590Z,14.31
2018-09-12T21:18:36.114Z,14.29
2018-09-12T21:21:04.759Z,14.28
2018-09-12T21:23:33.477Z,14.29
2018-09-12T21:26:01.959Z,14.32
2018-09-12T21:28:30.847Z,14.32
2018-09-12T21:30:59.481Z,14.32
2018-09-12T21:33:28.413Z,14.02
2018-09-12T21:35:56.914Z,14.27
2018-09-12T21:38:25.666Z,14.26
2018-09-12T21:40:54.389Z,14.25
2018-09-12T21:43:22.910Z,14.26
2018-09-12T21:45:51.529Z,14.27
2018-09-12T21:48:20.039Z,14.25
2018-09-12T21:50:48.809Z,14.24
2018-09-12T21:53:18.239Z,14.22
2018-09-12T21:55:46.968Z,13.59
2018-09-12T21:58:15.530Z,14.19
2018-09-12T22:00:44.194Z,14.19
2018-09-12T22:03:12.750Z,14.17
2018-09-12T22:05:41.274Z,14.13
2018-09-12T22:08:09.997Z,14.09
2018-09-12T22:10:38.599Z,14.10
2018-09-12T22:13:07.366Z,14.11
2018-09-12T22:15:35.886Z,14.09
2018-09-12T22:18:04.622Z,14.10
2018-09-12T22:20:33.258Z,14.12
2018-09-12T22:23:01.835Z,14.14
2018-09-12T22:25:30.546Z,14.13
2018-09-12T22:27:59.759Z,14.11
2018-09-12T22:30:28.250Z,14.02
2018-09-12T22:32:57.018Z,14.10
2018-09-12T22:35:25.797Z,14.12
2018-09-12T22:37:54.490Z,14.07
2018-09-12T22:40:23.190Z,13.67
2018-09-12T22:42:51.817Z,14.09
2018-09-12T22:45:20.658Z,14.08
2018-09-12T22:47:49.134Z,14.05
2018-09-12T22:50:17.792Z,14.11
2018-09-12T22:52:46.250Z,14.16
2018-09-12T22:55:14.725Z,14.17
2018-09-12T22:57:43.326Z,14.21
2018-09-12T23:00:11.999Z,14.19
2018-09-12T23:02:40.830Z,14.12
2018-09-12T23:05:09.408Z,14.03
2018-09-12T23:07:38.214Z,14.17
2018-09-12T23:10:06.753Z,14.19
2018-09-12T23:12:35.358Z,14.16
2018-09-12T23:15:04.191Z,14.15
2018-09-12T23:17:32.701Z,14.12
2018-09-12T23:20:01.382Z,14.13
2018-09-12T23:22:30.002Z,14.14
2018-09-12T23:24:58.756Z,14.16
2018-09-12T23:27:27.488Z,14.19
2018-09-12T23:29:56.146Z,14.17
2018-09-12T23:32:24.710Z,14.17
2018-09-12T23:34:53.206Z,14.17
2018-09-12T23:37:21.814Z,13.72
2018-09-12T23:39:50.347Z,14.20
2018-09-12T23:42:19.155Z,14.20
2018-09-12T23:44:47.832Z,14.16
2018-09-12T23:47:16.804Z,14.13
2018-09-12T23:49:45.396Z,14.12
2018-09-12T23:52:14.310Z,14.12
2018-09-12T23:54:42.774Z,14.13
2018-09-12T23:57:11.338Z,14.13
2018-09-12T23:59:39.933Z,14.14
